createdAt,value
2023-01-17T00:02:05.920Z,82974.03
2023-01-17T00:04:52.122Z,82717.38
2023-01-17T00:07:40.785Z,84514.44
2023-01-17T00:10:11.453Z,85284.91
2023-01-17T00:12:39.805Z,86312.47
2023-01-17T00:15:11.240Z,86312.47
2023-01-17T00:17:39.920Z,87340.31
2023-01-17T00:20:27.273Z,87854.38
2023-01-17T00:23:12.939Z,89139.81
2023-01-17T00:25:59.586Z,89911.31
2023-01-17T00:28:27.506Z,90940.22
2023-01-17T00:30:56.033Z,91454.81
2023-01-17T00:33:24.441Z,91969.47
2023-01-17T00:35:53.955Z,92484.19
2023-01-17T00:38:23.228Z,91712.13
2023-01-17T00:40:50.741Z,91454.81
2023-01-17T00:43:39.644Z,91454.81
2023-01-17T00:46:27.476Z,89139.81
2023-01-17T00:49:13.590Z,86055.56
2023-01-17T00:51:59.129Z,85028.06
2023-01-17T00:54:44.950Z,81434.31
2023-01-17T00:57:31.048Z,78356.94
2023-01-17T01:00:17.110Z,79638.84
2023-01-17T01:03:04.907Z,77588.03
2023-01-17T01:05:50.437Z,77844.31
2023-01-17T01:08:38.914Z,76306.91
2023-01-17T01:11:26.731Z,75538.44
2023-01-17T01:14:13.320Z,75282.31
2023-01-17T01:16:59.844Z,72210.47
2023-01-17T01:19:47.677Z,64957.72
2023-01-17T01:22:33.912Z,64702.41
2023-01-17T01:25:19.648Z,64247.66
2023-01-17T01:28:05.721Z,62519.00
2023-01-17T01:30:51.542Z,64207.78
2023-01-17T01:33:18.813Z,64311.47
2023-01-17T01:35:49.941Z,63892.69
2023-01-17T01:38:18.650Z,61426.81
2023-01-17T01:40:48.699Z,61239.50
2023-01-17T01:43:19.865Z,62066.53
2023-01-17T01:45:52.791Z,62134.28
2023-01-17T01:48:34.925Z,63615.50
2023-01-17T01:51:09.588Z,62724.31
2023-01-17T01:53:41.958Z,62477.13
2023-01-17T01:56:13.926Z,62473.16
2023-01-17T01:58:44.852Z,62576.78
2023-01-17T02:01:14.370Z,63142.97
2023-01-17T02:03:43.596Z,65221.06
2023-01-17T02:06:27.064Z,65211.06
2023-01-17T02:08:57.126Z,63992.41
2023-01-17T02:11:25.545Z,66154.81
2023-01-17T02:13:54.002Z,66629.75
2023-01-17T02:16:34.777Z,66641.75
2023-01-17T02:19:21.830Z,66607.81
2023-01-17T02:22:08.693Z,67931.25
2023-01-17T02:25:04.516Z,70303.94
2023-01-17T02:27:45.044Z,71954.59
2023-01-17T02:30:40.583Z,73234.09
2023-01-17T02:33:24.036Z,72978.16
2023-01-17T02:36:04.384Z,72978.16
2023-01-17T02:38:41.410Z,71442.94
2023-01-17T02:41:17.585Z,67679.69
2023-01-17T02:43:46.441Z,66510.03
2023-01-17T02:46:16.480Z,66617.78
2023-01-17T02:48:47.032Z,65288.88
2023-01-17T02:51:41.565Z,65947.28
2023-01-17T02:54:25.120Z,65217.06
2023-01-17T02:57:04.601Z,65123.31
2023-01-17T02:59:42.146Z,64997.63
2023-01-17T03:02:22.980Z,65931.31
2023-01-17T03:04:56.720Z,66759.50
2023-01-17T03:07:28.452Z,66761.47
2023-01-17T03:10:00.599Z,67523.97
2023-01-17T03:12:29.923Z,66569.88
2023-01-17T03:14:58.461Z,66793.41
2023-01-17T03:17:32.883Z,67240.53
2023-01-17T03:20:01.165Z,67320.38
2023-01-17T03:22:29.573Z,66266.56
2023-01-17T03:24:57.883Z,67132.72
2023-01-17T03:27:26.217Z,66921.16
2023-01-17T03:29:54.533Z,67060.88
2023-01-17T03:32:22.913Z,67719.63
2023-01-17T03:34:52.671Z,67440.13
2023-01-17T03:37:21.224Z,68224.75
2023-01-17T03:39:49.570Z,67659.72
2023-01-17T03:42:17.939Z,67332.34
2023-01-17T03:44:46.397Z,67627.78
2023-01-17T03:47:14.689Z,67615.81
2023-01-17T03:49:43.230Z,68252.69
2023-01-17T03:52:13.077Z,68825.81
2023-01-17T03:54:42.209Z,70072.19
2023-01-17T03:57:12.580Z,70675.56
2023-01-17T03:59:40.916Z,71442.94
2023-01-17T04:02:09.430Z,72210.47
2023-01-17T04:04:37.864Z,72466.34
2023-01-17T04:07:06.417Z,72466.34
2023-01-17T04:09:36.074Z,72978.16
2023-01-17T04:12:04.659Z,73746.06
2023-01-17T04:14:33.001Z,74002.03
2023-01-17T04:17:01.535Z,74514.09
2023-01-17T04:19:37.308Z,75282.31
2023-01-17T04:22:05.937Z,76050.72
2023-01-17T04:24:35.947Z,76819.28
2023-01-17T04:27:05.550Z,76306.91
2023-01-17T04:29:34.177Z,76563.09
2023-01-17T04:32:02.824Z,76306.91
2023-01-17T04:34:31.150Z,76050.72
2023-01-17T04:36:59.482Z,76306.91
2023-01-17T04:39:27.781Z,76050.72
2023-01-17T04:41:57.769Z,76050.72
2023-01-17T04:44:26.119Z,76563.09
2023-01-17T04:46:54.444Z,76819.28
2023-01-17T04:49:22.794Z,77844.31
2023-01-17T04:51:51.274Z,78100.63
2023-01-17T04:54:19.666Z,78356.94
2023-01-17T04:56:49.101Z,78100.63
2023-01-17T04:59:18.861Z,77331.78
2023-01-17T05:01:49.536Z,77588.03
2023-01-17T05:04:18.275Z,78100.63
2023-01-17T05:06:46.572Z,77588.03
2023-01-17T05:09:14.846Z,77844.31
2023-01-17T05:11:43.093Z,78356.94
2023-01-17T05:14:12.111Z,78100.63
2023-01-17T05:16:41.855Z,77844.31
2023-01-17T05:19:10.214Z,77844.31
2023-01-17T05:21:38.498Z,78100.63
2023-01-17T05:24:07.536Z,78100.63
2023-01-17T05:26:35.855Z,78356.94
2023-01-17T05:29:04.285Z,78869.66
2023-01-17T05:31:32.584Z,79895.28
2023-01-17T05:34:02.381Z,80408.22
2023-01-17T05:36:30.745Z,80664.72
2023-01-17T05:38:59.076Z,80921.25
2023-01-17T05:41:27.473Z,81177.78
2023-01-17T05:43:55.939Z,80664.72
2023-01-17T05:46:24.377Z,80408.22
2023-01-17T05:48:54.191Z,80408.22
2023-01-17T05:51:24.879Z,80921.25
2023-01-17T05:53:53.452Z,80664.72
2023-01-17T05:56:21.789Z,80664.72
2023-01-17T05:58:50.276Z,80408.22
2023-01-17T06:01:19.676Z,80151.75
2023-01-17T06:03:48.163Z,80151.75
2023-01-17T06:06:16.586Z,80408.22
2023-01-17T06:08:46.363Z,80664.72
2023-01-17T06:11:15.173Z,80921.25
2023-01-17T06:13:43.458Z,81177.78
2023-01-17T06:16:11.884Z,80664.72
2023-01-17T06:18:40.282Z,79638.84
2023-01-17T06:21:08.579Z,79382.44
2023-01-17T06:23:37.125Z,79638.84
2023-01-17T06:26:09.174Z,79382.44
2023-01-17T06:28:37.881Z,78613.28
2023-01-17T06:31:10.219Z,78356.94
2023-01-17T06:33:38.572Z,78356.94
2023-01-17T06:36:07.559Z,78100.63
2023-01-17T06:38:36.333Z,77588.03
2023-01-17T06:41:07.141Z,77588.03
2023-01-17T06:43:36.114Z,77588.03
2023-01-17T06:46:04.518Z,77331.78
2023-01-17T06:48:32.932Z,77075.53
2023-01-17T06:51:02.056Z,77075.53
2023-01-17T06:53:30.328Z,76819.28
2023-01-17T06:55:58.753Z,76563.09
2023-01-17T06:58:28.447Z,76050.72
2023-01-17T07:00:56.844Z,75794.56
2023-01-17T07:03:27.262Z,75538.44
2023-01-17T07:05:56.170Z,75282.31
2023-01-17T07:08:24.561Z,75282.31
2023-01-17T07:10:52.824Z,75538.44
2023-01-17T07:13:21.105Z,75282.31
2023-01-17T07:15:50.878Z,74514.09
2023-01-17T07:18:23.106Z,74002.03
2023-01-17T07:20:52.120Z,74258.06
2023-01-17T07:23:21.866Z,74514.09
2023-01-17T07:25:53.079Z,74002.03
2023-01-17T07:28:21.874Z,73746.06
2023-01-17T07:30:53.238Z,73490.06
2023-01-17T07:33:22.368Z,73234.09
2023-01-17T07:35:50.688Z,72722.25
2023-01-17T07:38:20.699Z,72466.34
2023-01-17T07:40:49.105Z,72466.34
2023-01-17T07:43:17.521Z,71698.75
2023-01-17T07:45:49.597Z,71442.94
2023-01-17T07:48:20.731Z,71187.13
2023-01-17T07:50:53.793Z,70931.31
2023-01-17T07:53:25.345Z,70931.31
2023-01-17T07:55:54.139Z,71187.13
2023-01-17T07:58:23.230Z,70675.56
2023-01-17T08:00:51.827Z,71187.13
2023-01-17T08:03:21.654Z,71442.94
2023-01-17T08:05:56.262Z,70675.56
2023-01-17T08:08:24.758Z,70164.06
2023-01-17T08:10:53.624Z,70649.59
2023-01-17T08:13:22.124Z,70675.56
2023-01-17T08:15:50.854Z,70675.56
2023-01-17T08:18:19.411Z,70931.31
2023-01-17T08:20:49.121Z,71187.13
2023-01-17T08:23:17.406Z,70931.31
2023-01-17T08:25:46.016Z,71442.94
2023-01-17T08:28:16.002Z,72210.47
2023-01-17T08:30:44.530Z,72210.47
2023-01-17T08:33:12.895Z,71954.59
2023-01-17T08:35:41.494Z,71954.59
2023-01-17T08:38:11.345Z,71698.75
2023-01-17T08:40:39.727Z,71698.75
2023-01-17T08:43:08.101Z,71954.59
2023-01-17T08:45:36.405Z,72210.47
2023-01-17T08:48:05.233Z,72722.25
2023-01-17T08:50:33.623Z,73746.06
2023-01-17T08:53:02.083Z,74514.09
2023-01-17T08:55:33.379Z,74770.16
2023-01-17T08:58:01.793Z,75282.31
2023-01-17T09:00:30.128Z,75026.22
2023-01-17T09:02:59.228Z,75282.31
2023-01-17T09:05:27.592Z,75794.56
2023-01-17T09:07:56.572Z,76050.72
2023-01-17T09:10:25.232Z,76050.72
2023-01-17T09:12:55.033Z,75538.44
2023-01-17T09:15:23.431Z,75026.22
2023-01-17T09:17:51.819Z,74002.03
2023-01-17T09:20:21.560Z,75026.22
2023-01-17T09:22:51.280Z,74514.09
2023-01-17T09:25:19.625Z,77075.53
2023-01-17T09:27:48.283Z,78100.63
2023-01-17T09:30:18.895Z,78356.94
2023-01-17T09:32:53.480Z,77588.03
2023-01-17T09:35:21.984Z,76563.09
2023-01-17T09:37:50.880Z,74002.03
2023-01-17T09:40:22.060Z,71698.75
2023-01-17T09:42:53.158Z,72466.34
2023-01-17T09:45:22.922Z,74002.03
2023-01-17T09:47:53.729Z,72722.25
2023-01-17T09:50:31.563Z,70419.81
2023-01-17T09:53:02.865Z,64068.19
2023-01-17T09:55:41.276Z,65783.66
2023-01-17T09:58:14.193Z,65983.19
2023-01-17T10:00:55.185Z,69071.44
2023-01-17T10:03:47.725Z,66009.13
2023-01-17T10:06:41.851Z,60755.34
2023-01-17T10:09:54.207Z,61675.91
2023-01-17T10:12:32.389Z,63408.13
2023-01-17T10:15:28.189Z,63009.38
2023-01-17T10:18:05.501Z,64828.06
2023-01-17T10:20:46.106Z,63824.88
2023-01-17T10:23:47.611Z,64100.09
2023-01-17T10:26:19.771Z,65169.19
2023-01-17T10:28:51.282Z,64496.97
2023-01-17T10:31:24.704Z,66298.47
2023-01-17T10:33:56.555Z,62249.91
2023-01-17T10:36:26.636Z,61596.19
2023-01-17T10:38:59.079Z,61448.72
2023-01-17T10:41:30.482Z,63198.78
2023-01-17T10:44:08.033Z,63152.94
2023-01-17T10:46:42.440Z,60283.19
2023-01-17T10:49:17.841Z,59285.31
2023-01-17T10:52:06.202Z,58952.75
2023-01-17T10:54:49.571Z,61030.28
2023-01-17T10:57:24.519Z,60591.97
2023-01-17T10:59:54.103Z,61755.63
2023-01-17T11:02:26.106Z,60942.63
2023-01-17T11:04:58.447Z,60803.16
2023-01-17T11:07:29.216Z,59938.56
2023-01-17T11:09:59.218Z,59333.13
2023-01-17T11:12:30.429Z,58331.53
2023-01-17T11:15:03.322Z,60269.25
2023-01-17T11:17:34.048Z,60002.31
2023-01-17T11:20:20.195Z,58337.53
2023-01-17T11:23:03.987Z,57145.19
2023-01-17T11:25:35.239Z,56982.00
2023-01-17T11:28:07.219Z,56490.47
2023-01-17T11:30:35.937Z,56538.22
2023-01-17T11:33:06.298Z,56908.34
2023-01-17T11:35:37.196Z,56464.59
2023-01-17T11:38:08.414Z,55989.06
2023-01-17T11:40:40.801Z,55831.91
2023-01-17T11:43:22.012Z,56940.19
2023-01-17T11:46:05.691Z,56633.75
2023-01-17T11:48:37.125Z,56532.25
2023-01-17T11:51:20.400Z,56168.13
2023-01-17T11:53:49.456Z,55461.88
2023-01-17T11:56:35.431Z,55756.31
2023-01-17T11:59:31.829Z,56042.78
2023-01-17T12:02:31.930Z,55227.16
2023-01-17T12:05:15.524Z,54883.06
2023-01-17T12:07:54.620Z,54668.28
2023-01-17T12:10:27.557Z,54767.72
2023-01-17T12:13:25.856Z,54839.31
2023-01-17T12:16:26.314Z,54660.31
2023-01-17T12:19:05.231Z,54517.16
2023-01-17T12:21:46.710Z,54385.91
2023-01-17T12:24:37.277Z,54403.78
2023-01-17T12:27:13.797Z,54594.69
2023-01-17T12:29:58.924Z,54439.59
2023-01-17T12:32:55.441Z,54338.16
2023-01-17T12:35:31.591Z,54288.44
2023-01-17T12:38:06.865Z,54262.59
2023-01-17T12:40:42.894Z,54262.59
2023-01-17T12:43:19.706Z,54228.81
2023-01-17T12:45:50.273Z,54461.47
2023-01-17T12:48:21.055Z,54306.34
2023-01-17T12:50:54.076Z,54226.81
2023-01-17T12:53:32.739Z,54151.25
2023-01-17T12:56:09.596Z,54169.16
2023-01-17T12:58:42.683Z,54185.06
2023-01-17T13:01:21.120Z,54254.66
2023-01-17T13:04:00.322Z,54236.75
2023-01-17T13:06:47.181Z,54145.28
2023-01-17T13:09:21.880Z,54117.44
2023-01-17T13:11:56.610Z,54167.16
2023-01-17T13:14:25.050Z,54141.31
2023-01-17T13:16:59.085Z,54163.19
2023-01-17T13:19:38.778Z,54218.84
2023-01-17T13:22:17.397Z,54232.78
2023-01-17T13:24:55.456Z,54196.97
2023-01-17T13:27:53.541Z,54187.03
2023-01-17T13:30:43.519Z,54230.78
2023-01-17T13:33:33.459Z,54202.94
2023-01-17T13:36:17.635Z,54220.84
2023-01-17T13:39:07.428Z,54258.63
2023-01-17T13:41:46.915Z,54210.91
2023-01-17T13:44:25.581Z,54238.75
2023-01-17T13:47:01.108Z,54187.03
2023-01-17T13:49:44.169Z,54191.03
2023-01-17T13:52:33.198Z,54157.22
2023-01-17T13:55:04.216Z,54175.13
2023-01-17T13:57:40.124Z,54202.94
2023-01-17T14:00:59.867Z,54191.03
2023-01-17T14:04:05.806Z,54204.94
2023-01-17T14:06:44.258Z,54206.94
2023-01-17T14:09:17.072Z,54163.19
2023-01-17T14:12:07.801Z,54193.00
2023-01-17T14:14:56.980Z,54191.03
2023-01-17T14:17:55.795Z,54240.72
2023-01-17T14:21:05.385Z,54198.97
2023-01-17T14:24:07.137Z,54179.09
2023-01-17T14:26:46.774Z,54135.34
2023-01-17T14:29:50.921Z,54139.31
2023-01-17T14:32:22.133Z,54125.41
2023-01-17T14:34:52.484Z,54127.38
2023-01-17T14:37:39.790Z,54155.22
2023-01-17T14:40:20.347Z,54141.31
2023-01-17T14:42:54.265Z,54135.34
2023-01-17T14:45:29.446Z,54123.41
2023-01-17T14:47:59.829Z,54147.28
2023-01-17T14:50:30.611Z,54123.41
2023-01-17T14:53:18.171Z,54087.63
2023-01-17T14:55:56.647Z,54073.69
2023-01-17T14:58:27.569Z,54103.53
2023-01-17T15:01:00.076Z,54099.56
2023-01-17T15:03:30.076Z,54105.50
2023-01-17T15:06:05.006Z,54121.41
2023-01-17T15:08:36.722Z,54103.53
2023-01-17T15:11:07.542Z,54091.59
2023-01-17T15:13:44.673Z,54107.50
2023-01-17T15:16:21.809Z,54135.34
2023-01-17T15:18:50.644Z,54123.41
2023-01-17T15:21:21.609Z,54153.25
2023-01-17T15:23:54.209Z,54143.28
2023-01-17T15:26:25.349Z,54155.22
2023-01-17T15:28:54.808Z,54175.13
2023-01-17T15:31:25.836Z,54147.28
2023-01-17T15:33:57.564Z,54179.09
2023-01-17T15:36:30.223Z,54163.19
2023-01-17T15:39:02.073Z,54208.91
2023-01-17T15:41:34.800Z,54230.78
2023-01-17T15:44:03.941Z,54238.75
2023-01-17T15:46:41.740Z,54238.75
2023-01-17T15:49:17.850Z,54252.66
2023-01-17T15:51:52.958Z,54284.47
2023-01-17T15:54:47.577Z,54310.34
2023-01-17T15:57:20.372Z,54354.06
2023-01-17T15:59:53.752Z,54334.19
2023-01-17T16:02:31.487Z,54366.00
2023-01-17T16:05:01.621Z,54401.81
2023-01-17T16:07:34.082Z,54397.81
2023-01-17T16:10:18.737Z,54425.66
2023-01-17T16:12:47.594Z,54453.50
2023-01-17T16:15:18.300Z,54477.38
2023-01-17T16:17:50.070Z,54499.25
2023-01-17T16:20:22.178Z,54588.75
2023-01-17T16:22:51.306Z,54556.91
2023-01-17T16:25:23.557Z,54556.91
2023-01-17T16:27:53.549Z,54564.88
2023-01-17T16:30:22.687Z,54666.28
2023-01-17T16:32:51.360Z,54640.44
2023-01-17T16:35:21.842Z,54735.91
2023-01-17T16:37:51.248Z,54721.97
2023-01-17T16:40:23.164Z,54684.19
2023-01-17T16:42:51.655Z,54771.69
2023-01-17T16:45:20.416Z,54815.47
2023-01-17T16:47:49.815Z,54815.47
2023-01-17T16:50:22.408Z,54837.34
2023-01-17T16:52:50.855Z,54863.19
2023-01-17T16:55:22.979Z,54906.94
2023-01-17T16:57:51.895Z,54948.72
2023-01-17T17:00:21.220Z,54962.63
2023-01-17T17:02:51.327Z,54950.69
2023-01-17T17:05:20.175Z,54940.75
2023-01-17T17:07:51.664Z,54992.47
2023-01-17T17:10:25.282Z,55034.22
2023-01-17T17:12:54.472Z,55072.03
2023-01-17T17:15:23.049Z,54986.50
2023-01-17T17:17:51.582Z,55034.22
2023-01-17T17:20:20.296Z,55050.16
2023-01-17T17:22:52.391Z,55028.25
2023-01-17T17:25:22.178Z,55165.50
2023-01-17T17:27:50.907Z,55171.47
2023-01-17T17:30:19.797Z,55181.41
2023-01-17T17:32:48.470Z,55253.03
2023-01-17T17:35:16.966Z,55274.91
2023-01-17T17:37:45.395Z,55229.16
2023-01-17T17:40:14.221Z,55225.19
2023-01-17T17:42:44.921Z,55207.28
2023-01-17T17:45:13.527Z,55292.81
2023-01-17T17:47:41.890Z,55316.69
2023-01-17T17:50:13.105Z,55368.41
2023-01-17T17:52:44.165Z,55336.56
2023-01-17T17:55:13.248Z,55453.94
2023-01-17T17:57:41.698Z,55432.06
2023-01-17T18:00:13.191Z,55730.44
2023-01-17T18:02:41.734Z,55851.78
2023-01-17T18:05:11.045Z,55849.81
2023-01-17T18:07:39.592Z,55718.50
2023-01-17T18:10:09.438Z,55666.78
2023-01-17T18:12:37.889Z,55734.41
2023-01-17T18:15:07.158Z,55817.97
2023-01-17T18:17:37.247Z,55865.72
2023-01-17T18:20:07.744Z,56062.69
2023-01-17T18:22:36.417Z,55917.44
2023-01-17T18:25:05.108Z,55907.50
2023-01-17T18:27:33.634Z,55774.22
2023-01-17T18:30:02.116Z,55802.06
2023-01-17T18:32:30.561Z,55927.41
2023-01-17T18:35:00.430Z,55708.56
2023-01-17T18:37:28.816Z,55676.72
2023-01-17T18:39:57.354Z,55648.88
2023-01-17T18:42:26.909Z,55678.72
2023-01-17T18:44:55.302Z,55531.50
2023-01-17T18:47:23.912Z,55533.50
2023-01-17T18:49:53.837Z,55475.81
2023-01-17T18:52:23.708Z,55577.25
2023-01-17T18:54:52.157Z,55750.34
2023-01-17T18:57:20.664Z,55682.69
2023-01-17T18:59:49.119Z,55710.56
2023-01-17T19:02:19.613Z,55714.53
2023-01-17T19:04:48.228Z,55704.59
2023-01-17T19:07:16.747Z,55724.47
2023-01-17T19:09:46.541Z,55696.63
2023-01-17T19:12:15.229Z,55646.88
2023-01-17T19:14:44.572Z,55541.47
2023-01-17T19:17:13.078Z,55734.41
2023-01-17T19:19:41.459Z,55821.94
2023-01-17T19:22:09.904Z,55851.78
2023-01-17T19:24:38.429Z,55861.75
2023-01-17T19:27:08.699Z,55859.75
2023-01-17T19:29:37.217Z,55929.38
2023-01-17T19:32:07.525Z,55933.38
2023-01-17T19:34:36.173Z,55933.38
2023-01-17T19:37:06.144Z,56036.81
2023-01-17T19:39:35.681Z,56102.47
2023-01-17T19:42:04.811Z,55969.19
2023-01-17T19:44:34.961Z,55857.75
2023-01-17T19:47:03.993Z,55889.59
2023-01-17T19:49:34.053Z,55746.34
2023-01-17T19:52:03.589Z,55752.31
2023-01-17T19:54:32.486Z,55885.63
2023-01-17T19:57:01.423Z,55702.59
2023-01-17T19:59:30.100Z,55865.72
2023-01-17T20:02:02.635Z,55913.47
2023-01-17T20:04:31.499Z,55754.31
2023-01-17T20:07:00.471Z,55595.16
2023-01-17T20:09:29.171Z,55619.03
2023-01-17T20:11:58.209Z,55714.53
2023-01-17T20:14:27.076Z,55762.28
2023-01-17T20:16:55.939Z,55939.34
2023-01-17T20:19:26.678Z,56022.88
2023-01-17T20:21:55.705Z,56018.91
2023-01-17T20:24:24.537Z,55837.88
2023-01-17T20:26:53.237Z,55736.41
2023-01-17T20:29:21.969Z,55623.03
2023-01-17T20:31:52.647Z,55627.00
2023-01-17T20:34:25.909Z,55692.66
2023-01-17T20:36:59.425Z,55792.13
2023-01-17T20:39:28.538Z,55979.13
2023-01-17T20:41:57.739Z,56005.00
2023-01-17T20:44:26.287Z,55901.53
2023-01-17T20:46:55.092Z,55804.06
2023-01-17T20:49:24.281Z,55821.94
2023-01-17T20:51:56.577Z,55800.06
2023-01-17T20:54:25.438Z,55788.13
2023-01-17T20:56:55.509Z,55718.50
2023-01-17T20:59:24.047Z,55738.41
2023-01-17T21:01:53.101Z,55760.28
2023-01-17T21:04:25.787Z,55901.53
2023-01-17T21:06:54.774Z,55947.28
2023-01-17T21:09:24.641Z,55845.81
2023-01-17T21:11:54.473Z,55845.81
2023-01-17T21:14:22.998Z,55841.84
2023-01-17T21:16:51.832Z,55782.16
2023-01-17T21:19:20.704Z,55776.19
2023-01-17T21:21:50.229Z,55758.28
2023-01-17T21:24:20.255Z,55825.94
2023-01-17T21:26:51.583Z,55808.03
2023-01-17T21:29:20.146Z,55851.78
2023-01-17T21:31:48.690Z,55855.78
2023-01-17T21:34:17.163Z,55881.63
2023-01-17T21:36:45.592Z,55770.22
2023-01-17T21:39:16.815Z,55931.38
2023-01-17T21:41:47.986Z,55993.06
2023-01-17T21:44:20.536Z,56005.00
2023-01-17T21:46:54.206Z,56036.81
2023-01-17T21:49:24.346Z,55875.66
2023-01-17T21:52:10.292Z,55810.03
2023-01-17T21:54:58.689Z,55817.97
2023-01-17T21:57:44.577Z,56168.13
2023-01-17T22:00:15.673Z,56217.88
2023-01-17T22:02:44.752Z,55955.25
2023-01-17T22:05:14.344Z,55835.88
2023-01-17T22:08:03.549Z,55883.63
2023-01-17T22:10:32.607Z,55875.66
2023-01-17T22:13:01.199Z,55804.06
2023-01-17T22:15:31.016Z,55843.84
2023-01-17T22:17:59.868Z,55893.56
2023-01-17T22:20:28.796Z,55861.75
2023-01-17T22:22:57.579Z,55921.44
2023-01-17T22:25:26.617Z,55925.41
2023-01-17T22:27:55.489Z,56140.28
2023-01-17T22:30:24.126Z,56259.66
2023-01-17T22:32:54.097Z,56219.88
2023-01-17T22:35:23.130Z,56188.03
2023-01-17T22:37:51.732Z,56132.31
2023-01-17T22:40:20.499Z,55891.59
2023-01-17T22:42:49.123Z,56024.88
2023-01-17T22:45:19.346Z,55877.66
2023-01-17T22:47:48.278Z,55923.41
2023-01-17T22:50:20.903Z,55993.06
2023-01-17T22:52:49.363Z,55903.53
2023-01-17T22:55:18.396Z,55802.06
2023-01-17T22:57:47.912Z,55808.03
2023-01-17T23:00:17.154Z,55857.75
2023-01-17T23:02:45.686Z,55907.50
2023-01-17T23:05:14.356Z,55829.91
2023-01-17T23:07:46.767Z,55875.66
2023-01-17T23:10:38.279Z,55913.47
2023-01-17T23:13:10.512Z,56001.00
2023-01-17T23:15:57.426Z,55825.94
2023-01-17T23:18:43.167Z,55808.03
2023-01-17T23:21:11.694Z,55989.06
2023-01-17T23:23:41.493Z,55975.16
2023-01-17T23:26:09.884Z,55921.44
2023-01-17T23:28:37.252Z,55869.69
2023-01-17T23:31:06.693Z,55845.81
2023-01-17T23:33:35.024Z,55812.00
2023-01-17T23:36:03.371Z,55853.78
2023-01-17T23:38:30.994Z,55935.34
2023-01-17T23:41:23.433Z,55915.47
2023-01-17T23:43:52.728Z,55881.63
2023-01-17T23:46:21.586Z,55869.69
2023-01-17T23:48:50.014Z,55788.13
2023-01-17T23:51:18.858Z,55788.13
2023-01-17T23:53:47.624Z,55682.69
2023-01-17T23:56:19.531Z,55835.88
2023-01-17T23:58:47.970Z,55764.25
